sensor_id;sensor_type;location;lat;lon;timestamp;temperature;humidity
33739;DHT22;20063;51.730;11.110;2023-03-21T00:00:44;8.90;99.90
33739;DHT22;20063;51.730;11.110;2023-03-21T00:03:10;8.90;99.90
33739;DHT22;20063;51.730;11.110;2023-03-21T00:05:43;8.90;99.90
33739;DHT22;20063;51.730;11.110;2023-03-21T00:08:14;8.90;99.90
33739;DHT22;20063;51.730;11.110;2023-03-21T00:10:40;8.90;99.90
33739;DHT22;20063;51.730;11.110;2023-03-21T00:13:06;8.90;99.90
33739;DHT22;20063;51.730;11.110;2023-03-21T00:15:31;8.90;99.90
33739;DHT22;20063;51.730;11.110;2023-03-21T00:17:57;8.90;99.90
33739;DHT22;20063;51.730;11.110;2023-03-21T00:20:31;8.90;99.90
33739;DHT22;20063;51.730;11.110;2023-03-21T00:22:59;8.90;99.90
33739;DHT22;20063;51.730;11.110;2023-03-21T00:25:26;8.90;99.90
33739;DHT22;20063;51.730;11.110;2023-03-21T00:27:52;8.90;99.90
33739;DHT22;20063;51.730;11.110;2023-03-21T00:30:17;8.80;99.90
33739;DHT22;20063;51.730;11.110;2023-03-21T00:32:45;8.90;99.90
33739;DHT22;20063;51.730;11.110;2023-03-21T00:35:10;8.80;99.90
33739;DHT22;20063;51.730;11.110;2023-03-21T00:37:36;8.80;99.90
33739;DHT22;20063;51.730;11.110;2023-03-21T00:40:02;8.80;99.90
33739;DHT22;20063;51.730;11.110;2023-03-21T00:42:33;8.80;99.90
33739;DHT22;20063;51.730;11.110;2023-03-21T00:44:59;8.80;99.90
33739;DHT22;20063;51.730;11.110;2023-03-21T00:47:26;8.90;99.90
33739;DHT22;20063;51.730;11.110;2023-03-21T00:49:52;8.80;99.90
33739;DHT22;20063;51.730;11.110;2023-03-21T00:52:17;8.80;99.90
33739;DHT22;20063;51.730;11.110;2023-03-21T00:54:43;8.90;99.90
33739;DHT22;20063;51.730;11.110;2023-03-21T00:57:08;8.80;99.90
33739;DHT22;20063;51.730;11.110;2023-03-21T00:59:34;8.80;99.90
33739;DHT22;20063;51.730;11.110;2023-03-21T01:02:00;8.90;99.90
33739;DHT22;20063;51.730;11.110;2023-03-21T01:04:26;8.90;99.90
33739;DHT22;20063;51.730;11.110;2023-03-21T01:06:53;8.90;99.90
33739;DHT22;20063;51.730;11.110;2023-03-21T01:09:21;8.90;99.90
33739;DHT22;20063;51.730;11.110;2023-03-21T01:11:48;8.80;99.90
33739;DHT22;20063;51.730;11.110;2023-03-21T01:14:16;8.80;99.90
33739;DHT22;20063;51.730;11.110;2023-03-21T01:16:43;8.80;99.90
33739;DHT22;20063;51.730;11.110;2023-03-21T01:19:12;8.80;99.90
33739;DHT22;20063;51.730;11.110;2023-03-21T01:21:38;8.70;99.90
33739;DHT22;20063;51.730;11.110;2023-03-21T01:24:05;8.70;99.90
33739;DHT22;20063;51.730;11.110;2023-03-21T01:26:31;8.70;99.90
33739;DHT22;20063;51.730;11.110;2023-03-21T01:28:57;8.70;99.90
33739;DHT22;20063;51.730;11.110;2023-03-21T01:31:23;8.70;99.90
33739;DHT22;20063;51.730;11.110;2023-03-21T01:33:48;8.70;99.90
33739;DHT22;20063;51.730;11.110;2023-03-21T01:36:16;8.70;99.90
33739;DHT22;20063;51.730;11.110;2023-03-21T01:38:43;8.70;99.90
33739;DHT22;20063;51.730;11.110;2023-03-21T01:41:24;8.70;99.90
33739;DHT22;20063;51.730;11.110;2023-03-21T01:43:50;8.70;99.90
33739;DHT22;20063;51.730;11.110;2023-03-21T01:46:37;8.70;99.90
33739;DHT22;20063;51.730;11.110;2023-03-21T01:49:10;8.70;99.90
33739;DHT22;20063;51.730;11.110;2023-03-21T01:51:41;8.70;99.90
33739;DHT22;20063;51.730;11.110;2023-03-21T01:54:12;8.70;99.90
33739;DHT22;20063;51.730;11.110;2023-03-21T01:56:39;8.70;99.90
33739;DHT22;20063;51.730;11.110;2023-03-21T01:59:13;8.70;99.90
33739;DHT22;20063;51.730;11.110;2023-03-21T02:01:41;8.70;99.90
33739;DHT22;20063;51.730;11.110;2023-03-21T02:04:10;8.70;99.90
33739;DHT22;20063;51.730;11.110;2023-03-21T02:07:06;8.70;99.90
33739;DHT22;20063;51.730;11.110;2023-03-21T02:09:36;8.70;99.90
33739;DHT22;20063;51.730;11.110;2023-03-21T02:12:02;8.70;99.90
33739;DHT22;20063;51.730;11.110;2023-03-21T02:14:29;8.70;99.90
33739;DHT22;20063;51.730;11.110;2023-03-21T02:17:01;8.70;99.90
33739;DHT22;20063;51.730;11.110;2023-03-21T02:19:53;8.70;99.90
33739;DHT22;20063;51.730;11.110;2023-03-21T02:27:38;8.70;99.90
33739;DHT22;20063;51.730;11.110;2023-03-21T02:30:33;8.70;99.90
33739;DHT22;20063;51.730;11.110;2023-03-21T02:39:12;8.60;99.90
33739;DHT22;20063;51.730;11.110;2023-03-21T02:46:58;8.70;99.90
33739;DHT22;20063;51.730;11.110;2023-03-21T02:52:21;8.70;99.90
33739;DHT22;20063;51.730;11.110;2023-03-21T02:54:48;8.70;99.90
33739;DHT22;20063;51.730;11.110;2023-03-21T02:57:17;8.70;99.90
33739;DHT22;20063;51.730;11.110;2023-03-21T02:59:46;8.70;99.90
33739;DHT22;20063;51.730;11.110;2023-03-21T03:02:14;8.80;99.90
33739;DHT22;20063;51.730;11.110;2023-03-21T03:04:40;8.70;99.90
33739;DHT22;20063;51.730;11.110;2023-03-21T03:07:16;8.70;99.90
33739;DHT22;20063;51.730;11.110;2023-03-21T03:23:54;8.70;99.90
33739;DHT22;20063;51.730;11.110;2023-03-21T03:26:44;8.60;99.90
33739;DHT22;20063;51.730;11.110;2023-03-21T03:29:14;8.70;99.90
33739;DHT22;20063;51.730;11.110;2023-03-21T03:31:56;8.70;99.90
33739;DHT22;20063;51.730;11.110;2023-03-21T03:34:27;8.70;99.90
33739;DHT22;20063;51.730;11.110;2023-03-21T03:36:56;8.60;99.90
33739;DHT22;20063;51.730;11.110;2023-03-21T03:39:32;8.70;99.90
33739;DHT22;20063;51.730;11.110;2023-03-21T03:42:05;8.70;99.90
33739;DHT22;20063;51.730;11.110;2023-03-21T03:44:33;8.60;99.90
33739;DHT22;20063;51.730;11.110;2023-03-21T03:47:05;8.50;99.90
33739;DHT22;20063;51.730;11.110;2023-03-21T03:49:44;8.50;99.90
33739;DHT22;20063;51.730;11.110;2023-03-21T03:52:25;8.50;99.90
33739;DHT22;20063;51.730;11.110;2023-03-21T03:54:53;8.40;99.90
33739;DHT22;20063;51.730;11.110;2023-03-21T03:57:19;8.40;99.90
33739;DHT22;20063;51.730;11.110;2023-03-21T03:59:45;8.40;99.90
33739;DHT22;20063;51.730;11.110;2023-03-21T04:02:12;8.40;99.90
33739;DHT22;20063;51.730;11.110;2023-03-21T04:04:38;8.40;99.90
33739;DHT22;20063;51.730;11.110;2023-03-21T04:07:04;8.40;99.90
33739;DHT22;20063;51.730;11.110;2023-03-21T04:09:30;8.50;99.90
33739;DHT22;20063;51.730;11.110;2023-03-21T04:11:57;8.50;99.90
33739;DHT22;20063;51.730;11.110;2023-03-21T04:14:23;8.50;99.90
33739;DHT22;20063;51.730;11.110;2023-03-21T04:16:49;8.50;99.90
33739;DHT22;20063;51.730;11.110;2023-03-21T04:19:17;8.40;99.90
33739;DHT22;20063;51.730;11.110;2023-03-21T04:21:43;8.50;99.90
33739;DHT22;20063;51.730;11.110;2023-03-21T04:24:09;8.50;99.90
33739;DHT22;20063;51.730;11.110;2023-03-21T04:26:36;8.50;99.90
33739;DHT22;20063;51.730;11.110;2023-03-21T04:29:02;8.50;99.90
33739;DHT22;20063;51.730;11.110;2023-03-21T04:31:30;8.40;99.90
33739;DHT22;20063;51.730;11.110;2023-03-21T04:33:59;8.40;99.90
33739;DHT22;20063;51.730;11.110;2023-03-21T04:36:26;8.40;99.90
33739;DHT22;20063;51.730;11.110;2023-03-21T04:38:57;8.40;99.90
33739;DHT22;20063;51.730;11.110;2023-03-21T04:41:27;8.40;99.90
33739;DHT22;20063;51.730;11.110;2023-03-21T04:43:53;8.40;99.90
33739;DHT22;20063;51.730;11.110;2023-03-21T04:46:18;8.40;99.90
33739;DHT22;20063;51.730;11.110;2023-03-21T04:48:44;8.50;99.90
33739;DHT22;20063;51.730;11.110;2023-03-21T04:51:11;8.40;99.90
33739;DHT22;20063;51.730;11.110;2023-03-21T04:53:37;8.50;99.90
33739;DHT22;20063;51.730;11.110;2023-03-21T04:56:04;8.40;99.90
33739;DHT22;20063;51.730;11.110;2023-03-21T04:58:30;8.50;99.90
33739;DHT22;20063;51.730;11.110;2023-03-21T05:00:56;8.50;99.90
33739;DHT22;20063;51.730;11.110;2023-03-21T05:03:23;8.50;99.90
33739;DHT22;20063;51.730;11.110;2023-03-21T05:05:49;8.50;99.90
33739;DHT22;20063;51.730;11.110;2023-03-21T05:08:15;8.50;99.90
33739;DHT22;20063;51.730;11.110;2023-03-21T05:10:41;8.50;99.90
33739;DHT22;20063;51.730;11.110;2023-03-21T05:13:07;8.50;99.90
33739;DHT22;20063;51.730;11.110;2023-03-21T05:15:33;8.50;99.90
33739;DHT22;20063;51.730;11.110;2023-03-21T05:17:58;8.50;99.90
33739;DHT22;20063;51.730;11.110;2023-03-21T05:20:34;8.50;99.90
33739;DHT22;20063;51.730;11.110;2023-03-21T05:23:00;8.50;99.90
33739;DHT22;20063;51.730;11.110;2023-03-21T05:25:25;8.50;99.90
33739;DHT22;20063;51.730;11.110;2023-03-21T05:27:59;8.50;99.90
33739;DHT22;20063;51.730;11.110;2023-03-21T05:30:27;8.50;99.90
33739;DHT22;20063;51.730;11.110;2023-03-21T05:32:52;8.50;99.90
33739;DHT22;20063;51.730;11.110;2023-03-21T05:35:18;8.50;99.90
33739;DHT22;20063;51.730;11.110;2023-03-21T05:37:44;8.50;99.90
33739;DHT22;20063;51.730;11.110;2023-03-21T05:40:11;8.50;99.90
33739;DHT22;20063;51.730;11.110;2023-03-21T05:42:37;8.50;99.90
33739;DHT22;20063;51.730;11.110;2023-03-21T05:45:03;8.50;99.90
33739;DHT22;20063;51.730;11.110;2023-03-21T05:47:29;8.60;99.90
33739;DHT22;20063;51.730;11.110;2023-03-21T05:49:54;8.60;99.90
33739;DHT22;20063;51.730;11.110;2023-03-21T05:52:21;8.60;99.90
33739;DHT22;20063;51.730;11.110;2023-03-21T05:54:46;8.60;99.90
33739;DHT22;20063;51.730;11.110;2023-03-21T05:57:12;8.60;99.90
33739;DHT22;20063;51.730;11.110;2023-03-21T05:59:37;8.60;99.90
33739;DHT22;20063;51.730;11.110;2023-03-21T06:02:03;8.60;99.90
33739;DHT22;20063;51.730;11.110;2023-03-21T06:04:29;8.60;99.90
33739;DHT22;20063;51.730;11.110;2023-03-21T06:06:55;8.60;99.90
33739;DHT22;20063;51.730;11.110;2023-03-21T06:09:21;8.60;99.90
33739;DHT22;20063;51.730;11.110;2023-03-21T06:11:50;8.70;99.90
33739;DHT22;20063;51.730;11.110;2023-03-21T06:14:17;8.60;99.90
33739;DHT22;20063;51.730;11.110;2023-03-21T06:16:43;8.70;99.90
33739;DHT22;20063;51.730;11.110;2023-03-21T06:19:09;8.70;99.90
33739;DHT22;20063;51.730;11.110;2023-03-21T06:21:36;8.70;99.90
33739;DHT22;20063;51.730;11.110;2023-03-21T06:24:01;8.70;99.90
33739;DHT22;20063;51.730;11.110;2023-03-21T06:26:28;8.70;99.90
33739;DHT22;20063;51.730;11.110;2023-03-21T06:28:54;8.70;99.90
33739;DHT22;20063;51.730;11.110;2023-03-21T06:31:20;8.70;99.90
33739;DHT22;20063;51.730;11.110;2023-03-21T06:33:48;8.70;99.90
33739;DHT22;20063;51.730;11.110;2023-03-21T06:36:14;8.70;99.90
33739;DHT22;20063;51.730;11.110;2023-03-21T06:38:40;8.60;99.90
33739;DHT22;20063;51.730;11.110;2023-03-21T06:41:09;8.70;99.90
33739;DHT22;20063;51.730;11.110;2023-03-21T06:43:34;8.70;99.90
33739;DHT22;20063;51.730;11.110;2023-03-21T06:46:00;8.70;99.90
33739;DHT22;20063;51.730;11.110;2023-03-21T06:48:26;8.60;99.90
33739;DHT22;20063;51.730;11.110;2023-03-21T06:50:52;8.60;99.90
33739;DHT22;20063;51.730;11.110;2023-03-21T06:53:20;8.70;99.90
33739;DHT22;20063;51.730;11.110;2023-03-21T06:55:50;8.70;99.90
33739;DHT22;20063;51.730;11.110;2023-03-21T06:58:16;8.70;99.90
33739;DHT22;20063;51.730;11.110;2023-03-21T07:00:42;8.80;99.90
33739;DHT22;20063;51.730;11.110;2023-03-21T07:03:09;8.80;99.90
33739;DHT22;20063;51.730;11.110;2023-03-21T07:05:36;8.80;99.90
33739;DHT22;20063;51.730;11.110;2023-03-21T07:08:02;8.90;99.90
33739;DHT22;20063;51.730;11.110;2023-03-21T07:10:28;9.00;99.90
33739;DHT22;20063;51.730;11.110;2023-03-21T07:12:54;8.90;99.90
33739;DHT22;20063;51.730;11.110;2023-03-21T07:15:19;8.90;99.90
33739;DHT22;20063;51.730;11.110;2023-03-21T07:17:45;8.90;99.90
33739;DHT22;20063;51.730;11.110;2023-03-21T07:20:11;9.00;99.90
33739;DHT22;20063;51.730;11.110;2023-03-21T07:22:37;9.00;99.90
33739;DHT22;20063;51.730;11.110;2023-03-21T07:25:03;9.00;99.90
33739;DHT22;20063;51.730;11.110;2023-03-21T07:27:29;9.10;99.90
33739;DHT22;20063;51.730;11.110;2023-03-21T07:29:55;9.10;99.90
33739;DHT22;20063;51.730;11.110;2023-03-21T07:32:21;9.10;99.90
33739;DHT22;20063;51.730;11.110;2023-03-21T07:34:46;9.20;99.90
33739;DHT22;20063;51.730;11.110;2023-03-21T07:37:12;9.20;99.90
33739;DHT22;20063;51.730;11.110;2023-03-21T07:39:38;9.20;99.90
33739;DHT22;20063;51.730;11.110;2023-03-21T07:42:03;9.20;99.90
33739;DHT22;20063;51.730;11.110;2023-03-21T07:44:29;9.20;99.90
33739;DHT22;20063;51.730;11.110;2023-03-21T07:46:56;9.30;99.90
33739;DHT22;20063;51.730;11.110;2023-03-21T07:49:21;9.30;99.90
33739;DHT22;20063;51.730;11.110;2023-03-21T07:51:47;9.30;99.90
33739;DHT22;20063;51.730;11.110;2023-03-21T07:54:12;9.40;99.90
33739;DHT22;20063;51.730;11.110;2023-03-21T07:56:38;9.50;99.90
33739;DHT22;20063;51.730;11.110;2023-03-21T07:59:03;9.50;99.90
33739;DHT22;20063;51.730;11.110;2023-03-21T08:01:31;9.60;99.90
33739;DHT22;20063;51.730;11.110;2023-03-21T08:03:56;9.70;99.90
33739;DHT22;20063;51.730;11.110;2023-03-21T08:06:22;9.70;99.90
33739;DHT22;20063;51.730;11.110;2023-03-21T08:08:51;9.80;99.90
33739;DHT22;20063;51.730;11.110;2023-03-21T08:11:16;9.80;99.90
33739;DHT22;20063;51.730;11.110;2023-03-21T08:13:43;9.80;99.90
33739;DHT22;20063;51.730;11.110;2023-03-21T08:16:08;9.90;99.90
33739;DHT22;20063;51.730;11.110;2023-03-21T08:18:34;9.90;99.90
33739;DHT22;20063;51.730;11.110;2023-03-21T08:21:00;9.90;99.90
33739;DHT22;20063;51.730;11.110;2023-03-21T08:23:25;10.00;99.90
33739;DHT22;20063;51.730;11.110;2023-03-21T08:25:54;10.10;99.90
33739;DHT22;20063;51.730;11.110;2023-03-21T08:28:21;10.10;99.90
33739;DHT22;20063;51.730;11.110;2023-03-21T08:30:47;10.10;99.90
33739;DHT22;20063;51.730;11.110;2023-03-21T08:33:13;10.10;99.90
33739;DHT22;20063;51.730;11.110;2023-03-21T08:35:39;10.20;99.90
33739;DHT22;20063;51.730;11.110;2023-03-21T08:38:06;10.20;99.90
33739;DHT22;20063;51.730;11.110;2023-03-21T08:40:32;10.20;99.90
33739;DHT22;20063;51.730;11.110;2023-03-21T08:42:58;10.20;99.90
33739;DHT22;20063;51.730;11.110;2023-03-21T08:45:24;10.20;99.90
33739;DHT22;20063;51.730;11.110;2023-03-21T08:47:52;10.40;99.90
33739;DHT22;20063;51.730;11.110;2023-03-21T08:50:20;10.50;99.90
33739;DHT22;20063;51.730;11.110;2023-03-21T08:52:46;10.60;99.90
33739;DHT22;20063;51.730;11.110;2023-03-21T08:55:14;10.70;99.90
33739;DHT22;20063;51.730;11.110;2023-03-21T08:57:41;10.70;99.90
33739;DHT22;20063;51.730;11.110;2023-03-21T09:00:09;10.70;99.90
33739;DHT22;20063;51.730;11.110;2023-03-21T09:02:44;10.70;99.90
33739;DHT22;20063;51.730;11.110;2023-03-21T09:05:10;10.70;99.90
33739;DHT22;20063;51.730;11.110;2023-03-21T09:07:37;10.70;99.90
33739;DHT22;20063;51.730;11.110;2023-03-21T09:10:05;10.70;99.90
33739;DHT22;20063;51.730;11.110;2023-03-21T09:12:32;10.80;99.90
33739;DHT22;20063;51.730;11.110;2023-03-21T09:14:58;10.80;99.90
33739;DHT22;20063;51.730;11.110;2023-03-21T09:17:24;10.80;99.90
33739;DHT22;20063;51.730;11.110;2023-03-21T09:19:51;10.90;99.90
33739;DHT22;20063;51.730;11.110;2023-03-21T09:22:17;10.90;99.90
33739;DHT22;20063;51.730;11.110;2023-03-21T09:24:46;10.90;99.90
33739;DHT22;20063;51.730;11.110;2023-03-21T09:27:12;10.90;99.90
33739;DHT22;20063;51.730;11.110;2023-03-21T09:29:40;10.80;99.90
33739;DHT22;20063;51.730;11.110;2023-03-21T09:32:08;10.80;99.90
33739;DHT22;20063;51.730;11.110;2023-03-21T09:34:34;10.90;99.90
33739;DHT22;20063;51.730;11.110;2023-03-21T09:37:01;10.90;99.90
33739;DHT22;20063;51.730;11.110;2023-03-21T09:39:27;11.00;99.90
33739;DHT22;20063;51.730;11.110;2023-03-21T09:49:37;11.10;99.90
33739;DHT22;20063;51.730;11.110;2023-03-21T09:52:12;11.10;99.90
33739;DHT22;20063;51.730;11.110;2023-03-21T09:54:41;11.20;99.90
33739;DHT22;20063;51.730;11.110;2023-03-21T09:57:32;11.20;99.90
33739;DHT22;20063;51.730;11.110;2023-03-21T10:00:04;11.20;99.90
33739;DHT22;20063;51.730;11.110;2023-03-21T10:02:43;11.30;99.90
33739;DHT22;20063;51.730;11.110;2023-03-21T10:05:19;11.30;99.90
33739;DHT22;20063;51.730;11.110;2023-03-21T10:07:57;11.30;99.90
33739;DHT22;20063;51.730;11.110;2023-03-21T10:10:27;11.30;99.90
33739;DHT22;20063;51.730;11.110;2023-03-21T10:12:55;11.20;99.90
33739;DHT22;20063;51.730;11.110;2023-03-21T10:15:24;11.30;99.90
33739;DHT22;20063;51.730;11.110;2023-03-21T10:20:27;11.40;99.90
33739;DHT22;20063;51.730;11.110;2023-03-21T10:22:54;11.40;99.90
33739;DHT22;20063;51.730;11.110;2023-03-21T10:25:33;11.40;99.90
33739;DHT22;20063;51.730;11.110;2023-03-21T10:28:00;11.50;99.90
33739;DHT22;20063;51.730;11.110;2023-03-21T10:30:43;11.40;99.90
33739;DHT22;20063;51.730;11.110;2023-03-21T10:33:16;11.40;99.90
33739;DHT22;20063;51.730;11.110;2023-03-21T10:35:54;11.50;99.90
33739;DHT22;20063;51.730;11.110;2023-03-21T10:38:23;11.40;99.90
33739;DHT22;20063;51.730;11.110;2023-03-21T10:40:50;11.40;99.90
33739;DHT22;20063;51.730;11.110;2023-03-21T10:45:50;11.40;99.90
33739;DHT22;20063;51.730;11.110;2023-03-21T10:48:16;11.40;99.90
33739;DHT22;20063;51.730;11.110;2023-03-21T10:50:46;11.40;99.90
33739;DHT22;20063;51.730;11.110;2023-03-21T10:53:29;11.50;99.90
33739;DHT22;20063;51.730;11.110;2023-03-21T10:55:58;11.50;99.90
33739;DHT22;20063;51.730;11.110;2023-03-21T10:58:27;11.50;99.90
33739;DHT22;20063;51.730;11.110;2023-03-21T11:00:59;11.60;99.90
33739;DHT22;20063;51.730;11.110;2023-03-21T11:03:37;11.60;99.90
33739;DHT22;20063;51.730;11.110;2023-03-21T11:06:13;11.60;99.90
33739;DHT22;20063;51.730;11.110;2023-03-21T11:08:46;11.70;99.90
33739;DHT22;20063;51.730;11.110;2023-03-21T11:11:20;11.70;99.90
33739;DHT22;20063;51.730;11.110;2023-03-21T11:13:58;11.70;99.90
33739;DHT22;20063;51.730;11.110;2023-03-21T11:16:30;11.80;99.90
33739;DHT22;20063;51.730;11.110;2023-03-21T11:19:02;11.90;99.90
33739;DHT22;20063;51.730;11.110;2023-03-21T11:21:35;11.90;99.90
33739;DHT22;20063;51.730;11.110;2023-03-21T11:24:01;11.90;99.90
33739;DHT22;20063;51.730;11.110;2023-03-21T11:26:33;12.00;99.90
33739;DHT22;20063;51.730;11.110;2023-03-21T11:29:30;12.00;99.90
33739;DHT22;20063;51.730;11.110;2023-03-21T11:32:22;12.00;99.90
33739;DHT22;20063;51.730;11.110;2023-03-21T11:34:53;12.20;99.90
33739;DHT22;20063;51.730;11.110;2023-03-21T11:42:50;12.30;99.90
33739;DHT22;20063;51.730;11.110;2023-03-21T11:47:49;12.50;99.90
33739;DHT22;20063;51.730;11.110;2023-03-21T12:05:14;12.70;99.90
33739;DHT22;20063;51.730;11.110;2023-03-21T12:07:29;12.70;99.90
33739;DHT22;20063;51.730;11.110;2023-03-21T12:24:50;12.80;99.90
33739;DHT22;20063;51.730;11.110;2023-03-21T12:27:40;12.80;99.90
33739;DHT22;20063;51.730;11.110;2023-03-21T12:38:23;12.90;99.90
33739;DHT22;20063;51.730;11.110;2023-03-21T12:46:08;13.00;99.90
33739;DHT22;20063;51.730;11.110;2023-03-21T12:48:51;13.10;99.90
33739;DHT22;20063;51.730;11.110;2023-03-21T12:51:23;13.10;99.90
33739;DHT22;20063;51.730;11.110;2023-03-21T12:54:03;13.20;99.90
33739;DHT22;20063;51.730;11.110;2023-03-21T12:56:33;13.20;99.90
33739;DHT22;20063;51.730;11.110;2023-03-21T12:59:02;13.30;99.90
33739;DHT22;20063;51.730;11.110;2023-03-21T13:01:29;13.30;99.90
33739;DHT22;20063;51.730;11.110;2023-03-21T13:06:53;13.30;99.90
33739;DHT22;20063;51.730;11.110;2023-03-21T13:09:32;13.40;99.90
33739;DHT22;20063;51.730;11.110;2023-03-21T13:12:24;13.40;99.90
33739;DHT22;20063;51.730;11.110;2023-03-21T13:15:04;13.40;99.90
33739;DHT22;20063;51.730;11.110;2023-03-21T13:17:37;13.40;99.90
33739;DHT22;20063;51.730;11.110;2023-03-21T13:20:43;13.40;99.90
33739;DHT22;20063;51.730;11.110;2023-03-21T13:23:10;13.50;99.90
33739;DHT22;20063;51.730;11.110;2023-03-21T13:25:44;13.50;99.90
33739;DHT22;20063;51.730;11.110;2023-03-21T13:28:22;13.50;99.90
33739;DHT22;20063;51.730;11.110;2023-03-21T13:30:50;13.60;99.90
33739;DHT22;20063;51.730;11.110;2023-03-21T13:33:27;13.60;99.90
33739;DHT22;20063;51.730;11.110;2023-03-21T13:36:15;13.60;99.90
33739;DHT22;20063;51.730;11.110;2023-03-21T13:38:49;13.60;99.90
33739;DHT22;20063;51.730;11.110;2023-03-21T13:41:25;13.50;99.90
33739;DHT22;20063;51.730;11.110;2023-03-21T13:48:54;13.40;99.90
33739;DHT22;20063;51.730;11.110;2023-03-21T13:56:58;13.30;99.90
33739;DHT22;20063;51.730;11.110;2023-03-21T13:59:39;13.30;99.90
33739;DHT22;20063;51.730;11.110;2023-03-21T14:02:28;13.30;99.90
33739;DHT22;20063;51.730;11.110;2023-03-21T14:04:58;13.20;99.90
33739;DHT22;20063;51.730;11.110;2023-03-21T14:07:35;13.10;99.90
33739;DHT22;20063;51.730;11.110;2023-03-21T14:10:15;13.10;99.90
33739;DHT22;20063;51.730;11.110;2023-03-21T14:12:43;13.10;99.90
33739;DHT22;20063;51.730;11.110;2023-03-21T14:15:23;13.10;99.90
33739;DHT22;20063;51.730;11.110;2023-03-21T14:18:01;13.10;99.90
33739;DHT22;20063;51.730;11.110;2023-03-21T14:20:36;13.10;99.90
33739;DHT22;20063;51.730;11.110;2023-03-21T14:23:07;13.20;99.90
33739;DHT22;20063;51.730;11.110;2023-03-21T14:25:37;13.20;99.90
33739;DHT22;20063;51.730;11.110;2023-03-21T14:28:07;13.20;99.90
33739;DHT22;20063;51.730;11.110;2023-03-21T14:30:36;13.20;99.90
33739;DHT22;20063;51.730;11.110;2023-03-21T14:35:38;13.00;99.90
33739;DHT22;20063;51.730;11.110;2023-03-21T14:38:06;13.00;99.90
33739;DHT22;20063;51.730;11.110;2023-03-21T14:40:34;13.00;99.90
33739;DHT22;20063;51.730;11.110;2023-03-21T14:43:04;13.00;99.90
33739;DHT22;20063;51.730;11.110;2023-03-21T14:45:34;13.00;99.90
33739;DHT22;20063;51.730;11.110;2023-03-21T14:48:07;12.90;99.90
33739;DHT22;20063;51.730;11.110;2023-03-21T14:50:53;12.80;99.90
33739;DHT22;20063;51.730;11.110;2023-03-21T14:53:24;12.90;99.90
33739;DHT22;20063;51.730;11.110;2023-03-21T14:55:59;12.90;99.90
33739;DHT22;20063;51.730;11.110;2023-03-21T14:58:25;12.80;99.90
33739;DHT22;20063;51.730;11.110;2023-03-21T15:00:55;12.90;99.90
33739;DHT22;20063;51.730;11.110;2023-03-21T15:03:24;12.90;99.90
33739;DHT22;20063;51.730;11.110;2023-03-21T15:05:52;12.80;99.90
33739;DHT22;20063;51.730;11.110;2023-03-21T15:08:21;12.80;99.90
33739;DHT22;20063;51.730;11.110;2023-03-21T15:13:29;12.70;99.90
33739;DHT22;20063;51.730;11.110;2023-03-21T15:15:56;12.80;99.90
33739;DHT22;20063;51.730;11.110;2023-03-21T15:18:28;12.80;99.90
33739;DHT22;20063;51.730;11.110;2023-03-21T15:20:55;12.80;99.90
33739;DHT22;20063;51.730;11.110;2023-03-21T15:23:29;12.80;99.90
33739;DHT22;20063;51.730;11.110;2023-03-21T15:25:56;12.80;99.90
33739;DHT22;20063;51.730;11.110;2023-03-21T15:28:24;12.70;99.90
33739;DHT22;20063;51.730;11.110;2023-03-21T15:30:51;12.70;99.90
33739;DHT22;20063;51.730;11.110;2023-03-21T15:33:18;12.60;99.90
33739;DHT22;20063;51.730;11.110;2023-03-21T15:35:52;12.60;99.90
33739;DHT22;20063;51.730;11.110;2023-03-21T15:40:48;12.50;99.90
33739;DHT22;20063;51.730;11.110;2023-03-21T15:43:15;12.50;99.90
33739;DHT22;20063;51.730;11.110;2023-03-21T15:45:49;12.40;99.90
33739;DHT22;20063;51.730;11.110;2023-03-21T15:48:15;12.30;99.90
33739;DHT22;20063;51.730;11.110;2023-03-21T15:50:51;12.30;99.90
33739;DHT22;20063;51.730;11.110;2023-03-21T15:53:22;12.30;99.90
33739;DHT22;20063;51.730;11.110;2023-03-21T15:55:50;12.30;99.90
33739;DHT22;20063;51.730;11.110;2023-03-21T15:58:22;12.20;99.90
33739;DHT22;20063;51.730;11.110;2023-03-21T16:01:02;12.20;99.90
33739;DHT22;20063;51.730;11.110;2023-03-21T16:03:30;12.10;99.90
33739;DHT22;20063;51.730;11.110;2023-03-21T16:08:50;12.10;99.90
33739;DHT22;20063;51.730;11.110;2023-03-21T16:11:24;12.10;99.90
33739;DHT22;20063;51.730;11.110;2023-03-21T16:13:51;12.00;99.90
33739;DHT22;20063;51.730;11.110;2023-03-21T16:16:23;12.00;99.90
33739;DHT22;20063;51.730;11.110;2023-03-21T16:18:50;11.90;99.90
33739;DHT22;20063;51.730;11.110;2023-03-21T16:21:19;11.90;99.90
33739;DHT22;20063;51.730;11.110;2023-03-21T16:23:46;11.90;99.90
33739;DHT22;20063;51.730;11.110;2023-03-21T16:26:15;11.90;99.90
33739;DHT22;20063;51.730;11.110;2023-03-21T16:28:42;11.80;99.90
33739;DHT22;20063;51.730;11.110;2023-03-21T16:31:21;11.80;99.90
33739;DHT22;20063;51.730;11.110;2023-03-21T16:33:48;11.70;99.90
33739;DHT22;20063;51.730;11.110;2023-03-21T16:36:15;11.60;99.90
33739;DHT22;20063;51.730;11.110;2023-03-21T16:38:43;11.70;99.90
33739;DHT22;20063;51.730;11.110;2023-03-21T16:41:11;11.60;99.90
33739;DHT22;20063;51.730;11.110;2023-03-21T16:43:36;11.50;99.90
33739;DHT22;20063;51.730;11.110;2023-03-21T16:46:30;11.50;99.90
33739;DHT22;20063;51.730;11.110;2023-03-21T16:48:56;11.50;99.90
33739;DHT22;20063;51.730;11.110;2023-03-21T16:51:33;11.50;99.90
33739;DHT22;20063;51.730;11.110;2023-03-21T16:53:59;11.40;99.90
33739;DHT22;20063;51.730;11.110;2023-03-21T16:58:59;11.40;99.90
33739;DHT22;20063;51.730;11.110;2023-03-21T17:01:25;11.30;99.90
33739;DHT22;20063;51.730;11.110;2023-03-21T17:03:52;11.30;99.90
33739;DHT22;20063;51.730;11.110;2023-03-21T17:06:26;11.30;99.90
33739;DHT22;20063;51.730;11.110;2023-03-21T17:08:54;11.30;99.90
33739;DHT22;20063;51.730;11.110;2023-03-21T17:11:22;11.30;99.90
33739;DHT22;20063;51.730;11.110;2023-03-21T17:13:50;11.30;99.90
33739;DHT22;20063;51.730;11.110;2023-03-21T17:16:18;11.30;99.90
33739;DHT22;20063;51.730;11.110;2023-03-21T17:18:45;11.30;99.90
33739;DHT22;20063;51.730;11.110;2023-03-21T17:21:14;11.20;99.90
33739;DHT22;20063;51.730;11.110;2023-03-21T17:23:40;11.20;99.90
33739;DHT22;20063;51.730;11.110;2023-03-21T17:26:06;11.10;99.90
33739;DHT22;20063;51.730;11.110;2023-03-21T17:28:36;11.20;99.90
33739;DHT22;20063;51.730;11.110;2023-03-21T17:31:02;11.10;99.90
33739;DHT22;20063;51.730;11.110;2023-03-21T17:33:28;11.10;99.90
33739;DHT22;20063;51.730;11.110;2023-03-21T17:35:54;11.10;99.90
33739;DHT22;20063;51.730;11.110;2023-03-21T17:38:20;11.10;99.90
33739;DHT22;20063;51.730;11.110;2023-03-21T17:40:49;11.00;99.90